Daneborg

KL  EN  DA
ASIAQ
Weather Now GREENLAND SURVEY
Updated [WGT/WGST] Temperature [°C] Wind [m/s] Air pressure [hPa] Relative humidity [%] Precipitation [mm]
Present Wind chill Speed Max
21.01 21:00-18,5-26,53,6 ⇐4,696078n/a
21.01 20:00-19,40,01,0 ⇑2,196081n/a
21.01 19:00-19,1-28,44,6 ⇒5,796076n/a
21.01 18:00-17,8-29,98,8 ⇘11,896169n/a
21.01 17:00-18,4-32,612,4 ⇘16,596173n/a
21.01 16:00-18,9-31,99,8 ⇘17,596277n/a
21.01 15:00-17,8-25,73,6 ⇑8,896383n/a
21.01 14:00-17,4-23,82,6 ⇖4,196483n/a
21.01 13:00-17,7-24,93,1 ⇐6,796582n/a
21.01 12:00-17,6-27,05,1 ⇖7,796983n/a
21.01 11:00-19,0-31,18,2 ⇘11,897184n/a
21.01 10:00-17,5-30,410,3 ⇘12,997479n/a
21.01 09:00-17,80,01,0 ⇐2,697666n/a
21.01 08:00-17,6-21,81,5 ⇑2,197966n/a
21.01 07:00-17,8-24,32,6 ⇑3,198165n/a
21.01 06:00-18,3-24,92,6 ⇑3,698364n/a
21.01 05:00-19,40,01,0 ⇖2,198465n/a
21.01 04:00-19,5-27,13,1 ⇓4,698665n/a
21.01 03:00-19,20,00,5 ⇒1,098868n/a
21.01 02:00-19,2-23,61,5 ⇓2,198962n/a
21.01 01:00-20,8-26,92,1 ⇘3,699168n/a
21.01 00:00-21,20,01,0 ⇓1,599370n/a
20.01 23:00-21,1-29,73,6 ⇘4,199469n/a
20.01 22:00-21,0-28,12,6 ⇓3,199672n/a
20.01 21:00-20,6-25,21,5 ⇐3,199769n/a
Position: (74.3075,-20.21694444)

[Back]